Time,TemperatureF,DewpointF,PressureIn,WindDirection,WindDirectionDegrees,WindSpeedMPH,WindSpeedGustMPH,Humidity,HourlyPrecipIn,Conditions,Clouds,dailyrainin,SoftwareType,DateUTC
2013-11-09 00:01:00,47.3,38.4,29.81,SSW,203,7.0,13.0,71,0.00,,CLR,0.00,VWS V14.01,2013-11-09 06:01:00,
2013-11-09 00:06:00,47.4,38.5,29.81,SSE,165,13.0,14.0,71,0.00,,CLR,0.00,VWS V14.01,2013-11-09 06:06:00,
2013-11-09 00:11:00,47.2,38.3,29.80,South,190,7.0,9.0,71,0.00,,CLR,0.00,VWS V14.01,2013-11-09 06:11:00,
2013-11-09 00:16:00,47.4,38.5,29.81,SSW,192,7.0,13.0,71,0.00,,CLR,0.00,VWS V14.01,2013-11-09 06:16:00,
2013-11-09 00:21:00,47.4,38.5,29.81,South,190,4.0,11.0,71,0.00,,CLR,0.00,VWS V14.01,2013-11-09 06:21:00,
2013-11-09 00:26:00,47.5,38.2,29.81,SSW,212,1.0,17.0,70,0.00,,CLR,0.00,VWS V14.01,2013-11-09 06:26:00,
2013-11-09 00:31:00,47.9,38.6,29.81,SSW,196,7.0,20.0,70,0.00,,CLR,0.00,VWS V14.01,2013-11-09 06:31:00,
2013-11-09 00:36:00,48.1,38.4,29.81,SSW,196,9.0,18.0,69,0.00,,CLR,0.00,VWS V14.01,2013-11-09 06:36:00,
2013-11-09 00:41:00,48.2,38.5,29.81,SSW,212,12.0,17.0,69,0.00,,CLR,0.00,VWS V14.01,2013-11-09 06:41:00,
2013-11-09 00:46:00,48.3,38.6,29.81,SSW,192,10.0,19.0,69,0.00,,CLR,0.00,VWS V14.01,2013-11-09 06:46:00,
2013-11-09 00:51:00,48.1,38.4,29.81,SSW,209,12.0,20.0,69,0.00,,CLR,0.00,VWS V14.01,2013-11-09 06:51:00,
2013-11-09 00:56:00,48.5,38.4,29.81,SSW,198,5.0,17.0,68,0.00,,CLR,0.00,VWS V14.01,2013-11-09 06:56:00,
2013-11-09 01:01:00,48.7,38.6,29.81,SW,215,13.0,13.0,68,0.00,,CLR,0.00,VWS V14.01,2013-11-09 07:01:00,
2013-11-09 01:06:00,48.6,38.5,29.80,SW,217,16.0,17.0,68,0.00,,CLR,0.00,VWS V14.01,2013-11-09 07:06:00,
2013-11-09 01:11:00,48.8,38.7,29.80,SW,217,13.0,16.0,68,0.00,,CLR,0.00,VWS V14.01,2013-11-09 07:11:00,
2013-11-09 01:16:00,48.8,38.7,29.80,South,171,11.0,16.0,68,0.00,,CLR,0.00,VWS V14.01,2013-11-09 07:16:00,
2013-11-09 01:21:00,49.0,38.9,29.80,SSW,211,13.0,13.0,68,0.00,,CLR,0.00,VWS V14.01,2013-11-09 07:21:00,
2013-11-09 01:26:00,49.1,38.6,29.80,SSW,209,16.0,16.0,67,0.00,,CLR,0.00,VWS V14.01,2013-11-09 07:26:00,
2013-11-09 01:31:00,49.2,38.7,29.80,SSW,200,19.0,19.0,67,0.00,,CLR,0.00,VWS V14.01,2013-11-09 07:31:00,
2013-11-09 01:36:00,49.2,38.7,29.80,SW,223,12.0,15.0,67,0.00,,CLR,0.00,VWS V14.01,2013-11-09 07:36:00,
2013-11-09 01:41:00,49.4,38.9,29.81,South,188,7.0,15.0,67,0.00,,CLR,0.00,VWS V14.01,2013-11-09 07:41:00,
2013-11-09 01:46:00,49.6,39.1,29.81,SW,220,12.0,16.0,67,0.00,,CLR,0.00,VWS V14.01,2013-11-09 07:46:00,
2013-11-09 01:51:00,49.5,39.0,29.80,SW,215,16.0,23.0,67,0.00,,CLR,0.00,VWS V14.01,2013-11-09 07:51:00,
2013-11-09 01:56:00,49.5,39.0,29.81,SSW,209,12.0,12.0,67,0.00,,CLR,0.00,VWS V14.01,2013-11-09 07:56:00,
2013-11-09 02:01:00,49.3,38.8,29.81,SSW,194,5.0,9.0,67,0.00,,CLR,0.00,VWS V14.01,2013-11-09 08:01:00,
2013-11-09 02:05:00,49.2,39.1,29.80,SSW,213,21.0,24.0,68,0.00,,CLR,0.00,VWS V14.01,2013-11-09 08:05:00,
2013-11-09 02:10:00,49.0,38.9,29.80,SSW,213,18.0,18.0,68,0.00,,CLR,0.00,VWS V14.01,2013-11-09 08:10:00,
2013-11-09 02:15:00,48.6,38.9,29.80,SSW,209,18.0,18.0,69,0.00,,CLR,0.00,VWS V14.01,2013-11-09 08:15:00,
2013-11-09 02:20:00,48.5,38.8,29.80,SW,217,15.0,17.0,69,0.00,,CLR,0.00,VWS V14.01,2013-11-09 08:20:00,
2013-11-09 02:25:00,48.5,38.8,29.80,SW,220,15.0,18.0,69,0.00,,CLR,0.00,VWS V14.01,2013-11-09 08:25:00,
2013-11-09 02:30:00,48.3,39.0,29.79,SSW,211,16.0,16.0,70,0.00,,CLR,0.00,VWS V14.01,2013-11-09 08:30:00,
2013-11-09 02:35:00,48.1,38.8,29.79,SSW,202,16.0,17.0,70,0.00,,CLR,0.00,VWS V14.01,2013-11-09 08:35:00,
2013-11-09 02:40:00,47.8,38.9,29.79,SSW,202,11.0,14.0,71,0.00,,CLR,0.00,VWS V14.01,2013-11-09 08:40:00,
2013-11-09 02:45:00,47.8,38.9,29.79,SW,227,13.0,18.0,71,0.00,,CLR,0.00,VWS V14.01,2013-11-09 08:45:00,
2013-11-09 02:50:00,47.6,39.0,29.79,SSW,204,16.0,20.0,72,0.00,,CLR,0.00,VWS V14.01,2013-11-09 08:50:00,
2013-11-09 02:55:00,47.6,39.0,29.78,SSW,210,11.0,18.0,72,0.00,,CLR,0.00,VWS V14.01,2013-11-09 08:55:00,
2013-11-09 03:01:00,47.3,40.1,29.78,SW,227,15.0,15.0,76,0.00,,CLR,0.00,VWS V14.01,2013-11-09 09:01:00,
2013-11-09 03:06:00,47.4,39.2,29.78,SSW,211,11.0,13.0,73,0.00,,CLR,0.00,VWS V14.01,2013-11-09 09:06:00,
2013-11-09 03:11:00,47.2,39.0,29.78,SW,221,15.0,15.0,73,0.00,,CLR,0.00,VWS V14.01,2013-11-09 09:11:00,
2013-11-09 03:16:00,47.0,39.2,29.79,SW,234,13.0,14.0,74,0.00,,CLR,0.00,VWS V14.01,2013-11-09 09:16:00,
2013-11-09 03:21:00,47.0,39.2,29.79,SW,216,14.0,16.0,74,0.00,,CLR,0.00,VWS V14.01,2013-11-09 09:21:00,
2013-11-09 03:26:00,47.1,39.2,29.78,SSW,211,13.0,18.0,74,0.00,,CLR,0.00,VWS V14.01,2013-11-09 09:26:00,
2013-11-09 03:31:00,47.2,39.3,29.78,SW,215,18.0,18.0,74,0.00,,CLR,0.00,VWS V14.01,2013-11-09 09:31:00,
2013-11-09 03:36:00,47.3,39.5,29.78,SSW,204,10.0,13.0,74,0.00,,CLR,0.00,VWS V14.01,2013-11-09 09:36:00,
2013-11-09 03:41:00,47.3,39.5,29.78,SSW,213,18.0,18.0,74,0.00,,CLR,0.00,VWS V14.01,2013-11-09 09:41:00,
2013-11-09 03:46:00,47.3,39.5,29.78,SSW,211,11.0,16.0,74,0.00,,CLR,0.00,VWS V14.01,2013-11-09 09:46:00,
2013-11-09 03:51:00,47.4,39.5,29.78,SW,219,15.0,18.0,74,0.00,,CLR,0.00,VWS V14.01,2013-11-09 09:51:00,
2013-11-09 03:56:00,47.4,39.5,29.78,SSW,208,13.0,14.0,74,0.00,,CLR,0.00,VWS V14.01,2013-11-09 09:56:00,
2013-11-09 04:01:00,47.2,39.3,29.78,SW,219,8.0,15.0,74,0.00,,CLR,0.00,VWS V14.01,2013-11-09 10:01:00,
2013-11-09 04:06:00,47.3,39.5,29.78,SSW,211,9.0,13.0,74,0.00,,CLR,0.00,VWS V14.01,2013-11-09 10:06:00,
2013-11-09 04:11:00,47.1,39.6,29.78,SSW,209,13.0,13.0,75,0.00,,CLR,0.00,VWS V14.01,2013-11-09 10:11:00,
2013-11-09 04:16:00,47.2,39.3,29.79,SSW,207,10.0,12.0,74,0.00,,CLR,0.00,VWS V14.01,2013-11-09 10:16:00,
2013-11-09 04:21:00,47.0,39.5,29.79,SW,221,11.0,16.0,75,0.00,,CLR,0.00,VWS V14.01,2013-11-09 10:21:00,
2013-11-09 04:26:00,46.9,39.4,29.79,SSW,207,10.0,14.0,75,0.00,,CLR,0.00,VWS V14.01,2013-11-09 10:26:00,
2013-11-09 04:31:00,46.7,39.5,29.79,SW,215,10.0,12.0,76,0.00,,CLR,0.00,VWS V14.01,2013-11-09 10:31:00,
2013-11-09 04:36:00,46.7,39.5,29.80,SW,219,7.0,9.0,76,0.00,,CLR,0.00,VWS V14.01,2013-11-09 10:36:00,
2013-11-09 04:41:00,46.6,39.5,29.80,SW,217,11.0,13.0,76,0.00,,CLR,0.00,VWS V14.01,2013-11-09 10:41:00,
2013-11-09 04:46:00,46.4,39.3,29.80,SW,215,9.0,9.0,76,0.00,,CLR,0.00,VWS V14.01,2013-11-09 10:46:00,
2013-11-09 04:51:00,46.4,39.3,29.80,SW,232,6.0,9.0,76,0.00,,CLR,0.00,VWS V14.01,2013-11-09 10:51:00,
2013-11-09 04:55:00,46.4,39.3,29.81,SSW,209,6.0,10.0,76,0.00,,CLR,0.00,VWS V14.01,2013-11-09 10:55:00,
2013-11-09 05:00:00,46.4,39.6,29.81,SW,232,5.0,12.0,77,0.00,,CLR,0.00,VWS V14.01,2013-11-09 11:00:00,
2013-11-09 05:05:00,46.5,39.7,29.81,SW,222,6.0,11.0,77,0.00,,CLR,0.00,VWS V14.01,2013-11-09 11:05:00,
2013-11-09 05:10:00,46.6,39.8,29.81,SW,224,4.0,9.0,77,0.00,,CLR,0.00,VWS V14.01,2013-11-09 11:10:00,
2013-11-09 05:15:00,46.9,39.7,29.81,SW,228,8.0,13.0,76,0.00,,CLR,0.00,VWS V14.01,2013-11-09 11:15:00,
2013-11-09 05:20:00,47.4,40.2,29.81,WSW,257,8.0,8.0,76,0.00,,BKN041,0.00,VWS V14.01,2013-11-09 11:20:00,
2013-11-09 05:25:00,47.6,40.1,29.81,WSW,251,7.0,8.0,75,0.00,,BKN041,0.00,VWS V14.01,2013-11-09 11:25:00,
2013-11-09 05:30:00,47.8,40.3,29.81,West,261,8.0,15.0,75,0.00,,BKN041,0.00,VWS V14.01,2013-11-09 11:30:00,
2013-11-09 05:35:00,48.2,40.3,29.81,SW,232,3.0,5.0,74,0.00,,BKN041,0.00,VWS V14.01,2013-11-09 11:35:00,
2013-11-09 05:40:00,48.2,40.3,29.81,SW,221,10.0,11.0,74,0.00,,OVC041,0.00,VWS V14.01,2013-11-09 11:40:00,
2013-11-09 05:45:00,48.1,40.2,29.81,SW,235,5.0,9.0,74,0.00,,OVC041,0.00,VWS V14.01,2013-11-09 11:45:00,
2013-11-09 05:50:00,47.8,39.9,29.81,SW,221,6.0,7.0,74,0.00,,OVC041,0.00,VWS V14.01,2013-11-09 11:50:00,
2013-11-09 05:55:00,47.6,40.1,29.82,SW,220,3.0,4.0,75,0.00,,OVC041,0.00,VWS V14.01,2013-11-09 11:55:00,
2013-11-09 06:00:00,47.4,39.9,29.82,SW,232,3.0,6.0,75,0.00,,SCT041,0.00,VWS V14.01,2013-11-09 12:00:00,
2013-11-09 06:05:00,47.3,40.1,29.82,SSW,209,6.0,8.0,76,0.00,,SCT041,0.00,VWS V14.01,2013-11-09 12:05:00,
2013-11-09 06:10:00,47.2,40.0,29.82,SW,214,9.0,10.0,76,0.00,,SCT041,0.00,VWS V14.01,2013-11-09 12:10:00,
2013-11-09 06:15:00,47.1,39.9,29.82,SSW,207,7.0,7.0,76,0.00,,SCT041,0.00,VWS V14.01,2013-11-09 12:15:00,
2013-11-09 06:20:00,47.0,39.8,29.82,WSW,251,5.0,8.0,76,0.00,,CLR,0.00,VWS V14.01,2013-11-09 12:20:00,
2013-11-09 06:25:00,46.8,39.7,29.82,SSW,204,4.0,6.0,76,0.00,,CLR,0.00,VWS V14.01,2013-11-09 12:25:00,
2013-11-09 06:30:00,46.4,39.6,29.82,SSW,211,7.0,9.0,77,0.00,,CLR,0.00,VWS V14.01,2013-11-09 12:30:00,
2013-11-09 06:35:00,46.1,39.3,29.83,SSW,208,5.0,6.0,77,0.00,,CLR,0.00,VWS V14.01,2013-11-09 12:35:00,
2013-11-09 06:40:00,45.0,38.9,29.83,SSW,207,6.0,6.0,79,0.00,,CLR,0.00,VWS V14.01,2013-11-09 12:40:00,
2013-11-09 06:45:00,44.7,38.9,29.83,SSW,209,7.0,8.0,80,0.00,,CLR,0.00,VWS V14.01,2013-11-09 12:45:00,
2013-11-09 06:50:00,44.8,39.0,29.83,SSW,209,5.0,6.0,80,0.00,,CLR,0.00,VWS V14.01,2013-11-09 12:50:00,
2013-11-09 06:55:00,44.9,39.1,29.83,SSW,212,7.0,8.0,80,0.00,,CLR,0.00,VWS V14.01,2013-11-09 12:55:00,
2013-11-09 07:00:00,44.5,39.0,29.83,SSW,205,6.0,7.0,81,0.00,,CLR,0.00,VWS V14.01,2013-11-09 13:00:00,
2013-11-09 07:05:00,44.0,38.5,29.84,SSW,213,6.0,8.0,81,0.00,,CLR,0.00,VWS V14.01,2013-11-09 13:05:00,
2013-11-09 07:10:00,44.0,38.9,29.84,SSW,213,7.0,7.0,82,0.00,,CLR,0.00,VWS V14.01,2013-11-09 13:10:00,
2013-11-09 07:15:00,44.1,39.0,29.84,SSW,213,6.0,8.0,82,0.00,,CLR,0.00,VWS V14.01,2013-11-09 13:15:00,
2013-11-09 07:20:00,44.2,39.1,29.84,SW,214,5.0,5.0,82,0.00,,CLR,0.00,VWS V14.01,2013-11-09 13:20:00,
2013-11-09 07:25:00,44.4,39.3,29.84,SW,225,8.0,8.0,82,0.00,,CLR,0.00,VWS V14.01,2013-11-09 13:25:00,
2013-11-09 07:30:00,45.0,39.5,29.84,SW,215,7.0,8.0,81,0.00,,CLR,0.00,VWS V14.01,2013-11-09 13:30:00,
2013-11-09 07:35:00,45.7,39.9,29.84,SW,225,6.0,9.0,80,0.00,,CLR,0.00,VWS V14.01,2013-11-09 13:35:00,
2013-11-09 07:40:00,46.1,40.0,29.84,SW,231,4.0,6.0,79,0.00,,CLR,0.00,VWS V14.01,2013-11-09 13:40:00,
2013-11-09 07:45:00,46.7,39.9,29.84,SSW,212,9.0,10.0,77,0.00,,CLR,0.00,VWS V14.01,2013-11-09 13:45:00,
2013-11-09 07:50:00,47.2,40.0,29.84,SW,227,4.0,8.0,76,0.00,,CLR,0.00,VWS V14.01,2013-11-09 13:50:00,
2013-11-09 07:55:00,47.5,40.3,29.84,WSW,238,5.0,5.0,76,0.00,,CLR,0.00,VWS V14.01,2013-11-09 13:55:00,
2013-11-09 08:00:00,47.8,40.3,29.85,WSW,243,6.0,6.0,75,0.00,,CLR,0.00,VWS V14.01,2013-11-09 14:00:00,
2013-11-09 08:05:00,48.1,40.6,29.85,WSW,250,5.0,9.0,75,0.00,,CLR,0.00,VWS V14.01,2013-11-09 14:05:00,
2013-11-09 08:10:00,48.2,40.3,29.85,WSW,245,9.0,12.0,74,0.00,,CLR,0.00,VWS V14.01,2013-11-09 14:10:00,
2013-11-09 08:15:00,48.5,40.6,29.85,WSW,237,9.0,9.0,74,0.00,,CLR,0.00,VWS V14.01,2013-11-09 14:15:00,
2013-11-09 08:20:00,48.6,40.3,29.85,SW,235,5.0,6.0,73,0.00,,CLR,0.00,VWS V14.01,2013-11-09 14:20:00,
2013-11-09 08:25:00,48.8,40.9,29.85,SW,234,13.0,13.0,74,0.00,,CLR,0.00,VWS V14.01,2013-11-09 14:25:00,
2013-11-09 08:30:00,48.9,40.6,29.86,SW,214,6.0,7.0,73,0.00,,CLR,0.00,VWS V14.01,2013-11-09 14:30:00,
2013-11-09 08:35:00,49.0,40.7,29.85,West,262,8.0,8.0,73,0.00,,CLR,0.00,VWS V14.01,2013-11-09 14:35:00,
2013-11-09 08:40:00,49.4,40.8,29.86,WSW,255,4.0,4.0,72,0.00,,CLR,0.00,VWS V14.01,2013-11-09 14:40:00,
2013-11-09 08:45:00,49.8,40.8,29.86,WSW,254,7.0,7.0,71,0.00,,CLR,0.00,VWS V14.01,2013-11-09 14:45:00,
2013-11-09 08:50:00,50.2,41.2,29.86,SW,231,5.0,7.0,71,0.00,,CLR,0.00,VWS V14.01,2013-11-09 14:50:00,
2013-11-09 08:55:00,50.6,41.2,29.86,WSW,245,1.0,2.0,70,0.00,,CLR,0.00,VWS V14.01,2013-11-09 14:55:00,
2013-11-09 09:00:00,50.9,40.7,29.86,West,269,4.0,5.0,68,0.00,,CLR,0.00,VWS V14.01,2013-11-09 15:00:00,
2013-11-09 09:05:00,51.3,41.1,29.86,WSW,253,8.0,8.0,68,0.00,,CLR,0.00,VWS V14.01,2013-11-09 15:05:00,
2013-11-09 09:10:00,51.6,41.0,29.86,SSW,213,6.0,6.0,67,0.00,,CLR,0.00,VWS V14.01,2013-11-09 15:10:00,
2013-11-09 09:15:00,51.8,41.2,29.86,West,270,5.0,7.0,67,0.00,,CLR,0.00,VWS V14.01,2013-11-09 15:15:00,
2013-11-09 09:20:00,52.1,41.5,29.86,West,264,12.0,16.0,67,0.00,,CLR,0.00,VWS V14.01,2013-11-09 15:20:00,
2013-11-09 09:25:00,52.3,41.3,29.86,SW,230,8.0,9.0,66,0.00,,CLR,0.00,VWS V14.01,2013-11-09 15:25:00,
2013-11-09 09:30:00,52.4,41.4,29.86,WSW,242,3.0,4.0,66,0.00,,CLR,0.00,VWS V14.01,2013-11-09 15:30:00,
2013-11-09 09:35:00,52.7,40.9,29.86,West,280,6.0,13.0,64,0.00,,CLR,0.00,VWS V14.01,2013-11-09 15:35:00,
2013-11-09 09:40:00,52.6,40.8,29.86,West,279,8.0,15.0,64,0.00,,CLR,0.00,VWS V14.01,2013-11-09 15:40:00,
2013-11-09 09:45:00,52.7,40.9,29.86,WSW,244,6.0,18.0,64,0.00,,CLR,0.00,VWS V14.01,2013-11-09 15:45:00,
2013-11-09 09:50:00,53.0,41.6,29.86,WSW,250,10.0,12.0,65,0.00,,CLR,0.00,VWS V14.01,2013-11-09 15:50:00,
2013-11-09 09:55:00,53.0,41.2,29.86,WNW,290,1.0,14.0,64,0.00,,CLR,0.00,VWS V14.01,2013-11-09 15:55:00,
2013-11-09 10:00:00,53.7,41.8,29.86,West,271,3.0,10.0,64,0.00,,CLR,0.00,VWS V14.01,2013-11-09 16:00:00,
2013-11-09 10:05:00,53.7,41.8,29.86,SW,221,6.0,12.0,64,0.00,,CLR,0.00,VWS V14.01,2013-11-09 16:05:00,
2013-11-09 10:10:00,53.9,42.0,29.86,WSW,237,6.0,14.0,64,0.00,,CLR,0.00,VWS V14.01,2013-11-09 16:10:00,
2013-11-09 10:15:00,54.0,41.7,29.86,WSW,245,6.0,12.0,63,0.00,,CLR,0.00,VWS V14.01,2013-11-09 16:15:00,
2013-11-09 10:20:00,54.2,42.3,29.86,SW,228,9.0,10.0,64,0.00,,CLR,0.00,VWS V14.01,2013-11-09 16:20:00,
2013-11-09 10:25:00,54.2,41.5,29.87,West,259,7.0,12.0,62,0.00,,CLR,0.00,VWS V14.01,2013-11-09 16:25:00,
2013-11-09 10:30:00,53.9,42.0,29.87,WSW,254,5.0,11.0,64,0.00,,CLR,0.00,VWS V14.01,2013-11-09 16:30:00,
2013-11-09 10:35:00,54.0,41.7,29.87,WSW,249,11.0,14.0,63,0.00,,CLR,0.00,VWS V14.01,2013-11-09 16:35:00,
2013-11-09 10:40:00,54.3,42.0,29.87,West,260,7.0,12.0,63,0.00,,CLR,0.00,VWS V14.01,2013-11-09 16:40:00,
2013-11-09 10:45:00,54.4,42.1,29.87,WSW,254,7.0,14.0,63,0.00,,CLR,0.00,VWS V14.01,2013-11-09 16:45:00,
2013-11-09 10:50:00,54.6,42.3,29.88,WNW,286,8.0,11.0,63,0.00,,CLR,0.00,VWS V14.01,2013-11-09 16:50:00,
2013-11-09 10:55:00,54.9,42.6,29.88,WSW,247,3.0,10.0,63,0.00,,CLR,0.00,VWS V14.01,2013-11-09 16:55:00,
2013-11-09 10:59:00,55.2,42.4,29.88,West,271,4.0,13.0,62,0.00,,CLR,0.00,VWS V14.01,2013-11-09 16:59:00,
2013-11-09 11:04:00,55.7,43.3,29.88,WSW,238,4.0,9.0,63,0.00,,CLR,0.00,VWS V14.01,2013-11-09 17:04:00,
2013-11-09 11:09:00,55.6,42.4,29.88,WSW,257,5.0,16.0,61,0.00,,CLR,0.00,VWS V14.01,2013-11-09 17:09:00,
2013-11-09 11:14:00,55.5,42.7,29.88,WSW,246,4.0,11.0,62,0.00,,CLR,0.00,VWS V14.01,2013-11-09 17:14:00,
2013-11-09 11:19:00,55.7,42.5,29.88,WNW,288,6.0,14.0,61,0.00,,CLR,0.00,VWS V14.01,2013-11-09 17:19:00,
2013-11-09 11:24:00,55.4,42.2,29.88,WNW,288,5.0,14.0,61,0.00,,CLR,0.00,VWS V14.01,2013-11-09 17:24:00,
2013-11-09 11:29:00,55.3,42.5,29.87,WNW,290,9.0,13.0,62,0.00,,CLR,0.00,VWS V14.01,2013-11-09 17:29:00,
2013-11-09 11:34:00,55.7,42.9,29.87,West,278,15.0,17.0,62,0.00,,CLR,0.00,VWS V14.01,2013-11-09 17:34:00,
2013-11-09 11:39:00,55.4,42.2,29.87,WSW,243,7.0,15.0,61,0.00,,CLR,0.00,VWS V14.01,2013-11-09 17:39:00,
2013-11-09 11:44:00,55.9,43.1,29.87,West,265,7.0,11.0,62,0.00,,CLR,0.00,VWS V14.01,2013-11-09 17:44:00,
2013-11-09 11:49:00,56.2,43.4,29.87,WSW,251,8.0,11.0,62,0.00,,CLR,0.00,VWS V14.01,2013-11-09 17:49:00,
2013-11-09 11:54:00,55.8,42.6,29.87,West,278,3.0,16.0,61,0.00,,CLR,0.00,VWS V14.01,2013-11-09 17:54:00,
2013-11-09 11:59:00,56.6,43.3,29.86,SW,230,5.0,10.0,61,0.00,,CLR,0.00,VWS V14.01,2013-11-09 17:59:00,
2013-11-09 12:04:00,56.3,42.6,29.86,SW,219,13.0,13.0,60,0.00,,CLR,0.00,VWS V14.01,2013-11-09 18:04:00,
2013-11-09 12:09:00,56.2,42.5,29.86,WSW,248,3.0,10.0,60,0.00,,CLR,0.00,VWS V14.01,2013-11-09 18:09:00,
2013-11-09 12:14:00,56.6,42.5,29.86,WSW,242,6.0,15.0,59,0.00,,CLR,0.00,VWS V14.01,2013-11-09 18:14:00,
2013-11-09 12:19:00,56.8,42.6,29.87,West,264,9.0,15.0,59,0.00,,CLR,0.00,VWS V14.01,2013-11-09 18:19:00,
2013-11-09 12:24:00,56.1,42.0,29.86,West,275,8.0,16.0,59,0.00,,CLR,0.00,VWS V14.01,2013-11-09 18:24:00,
2013-11-09 12:29:00,56.2,42.5,29.87,WSW,252,5.0,15.0,60,0.00,,CLR,0.00,VWS V14.01,2013-11-09 18:29:00,
2013-11-09 12:34:00,56.1,42.0,29.87,NW,307,7.0,17.0,59,0.00,,CLR,0.00,VWS V14.01,2013-11-09 18:34:00,
2013-11-09 12:39:00,56.4,41.8,29.87,WSW,252,6.0,14.0,58,0.00,,CLR,0.00,VWS V14.01,2013-11-09 18:39:00,
2013-11-09 12:44:00,56.7,42.1,29.87,West,264,7.0,15.0,58,0.00,,FEW046,0.00,VWS V14.01,2013-11-09 18:44:00,
2013-11-09 12:49:00,57.0,42.4,29.86,SW,233,5.0,13.0,58,0.00,,FEW046,0.00,VWS V14.01,2013-11-09 18:49:00,
2013-11-09 12:54:00,56.9,42.3,29.86,WNW,286,8.0,16.0,58,0.00,,FEW046,0.00,VWS V14.01,2013-11-09 18:54:00,
2013-11-09 12:59:00,57.0,41.9,29.87,WNW,282,11.0,17.0,57,0.00,,FEW046,0.00,VWS V14.01,2013-11-09 18:59:00,
2013-11-09 13:04:00,57.0,42.4,29.87,WSW,250,1.0,16.0,58,0.00,,SCT050,0.00,VWS V14.01,2013-11-09 19:04:00,
2013-11-09 13:09:00,57.1,42.5,29.87,West,279,7.0,13.0,58,0.00,,SCT050,0.00,VWS V14.01,2013-11-09 19:09:00,
2013-11-09 13:14:00,56.7,41.7,29.87,West,268,9.0,13.0,57,0.00,,SCT050,0.00,VWS V14.01,2013-11-09 19:14:00,
2013-11-09 13:19:00,57.3,42.7,29.87,WSW,244,8.0,17.0,58,0.00,,SCT050,0.00,VWS V14.01,2013-11-09 19:19:00,
2013-11-09 13:24:00,57.5,42.4,29.88,NW,319,8.0,22.0,57,0.00,,SCT046,0.00,VWS V14.01,2013-11-09 19:24:00,
2013-11-09 13:29:00,57.4,41.8,29.88,SW,219,7.0,19.0,56,0.00,,SCT046,0.00,VWS V14.01,2013-11-09 19:29:00,
2013-11-09 13:34:00,57.5,42.4,29.88,West,266,6.0,15.0,57,0.00,,SCT046,0.00,VWS V14.01,2013-11-09 19:34:00,
2013-11-09 13:39:00,58.2,43.1,29.88,West,279,11.0,14.0,57,0.00,,SCT046,0.00,VWS V14.01,2013-11-09 19:39:00,
2013-11-09 13:44:00,57.7,42.1,29.88,West,260,9.0,20.0,56,0.00,,BKN055,0.00,VWS V14.01,2013-11-09 19:44:00,
2013-11-09 13:49:00,57.8,42.7,29.88,WNW,298,10.0,17.0,57,0.00,,BKN055,0.00,VWS V14.01,2013-11-09 19:49:00,
2013-11-09 13:54:00,57.7,42.6,29.89,SW,227,8.0,16.0,57,0.00,,BKN055,0.00,VWS V14.01,2013-11-09 19:54:00,
2013-11-09 13:59:00,56.7,42.1,29.89,West,259,9.0,21.0,58,0.00,,BKN055,0.00,VWS V14.01,2013-11-09 19:59:00,
2013-11-09 14:04:00,56.9,42.3,29.89,NW,309,10.0,16.0,58,0.00,,SCT050,0.00,VWS V14.01,2013-11-09 20:04:00,
2013-11-09 14:09:00,57.5,42.8,29.89,SW,229,7.0,13.0,58,0.00,,SCT050,0.00,VWS V14.01,2013-11-09 20:09:00,
2013-11-09 14:14:00,57.8,42.7,29.90,West,279,8.0,13.0,57,0.00,,SCT050,0.00,VWS V14.01,2013-11-09 20:14:00,
2013-11-09 14:19:00,57.5,42.4,29.90,West,269,12.0,20.0,57,0.00,,SCT050,0.00,VWS V14.01,2013-11-09 20:19:00,
2013-11-09 14:24:00,57.1,42.5,29.90,West,281,2.0,13.0,58,0.00,,FEW050,0.00,VWS V14.01,2013-11-09 20:24:00,
2013-11-09 14:29:00,57.3,42.7,29.91,West,279,4.0,14.0,58,0.00,,FEW050,0.00,VWS V14.01,2013-11-09 20:29:00,
2013-11-09 14:34:00,56.6,42.5,29.91,WSW,253,7.0,17.0,59,0.00,,FEW050,0.00,VWS V14.01,2013-11-09 20:34:00,
2013-11-09 14:39:00,56.2,42.5,29.91,NW,322,12.0,15.0,60,0.00,,FEW050,0.00,VWS V14.01,2013-11-09 20:39:00,
2013-11-09 14:44:00,55.5,41.9,29.91,SW,227,4.0,12.0,60,0.00,,FEW046,0.00,VWS V14.01,2013-11-09 20:44:00,
2013-11-09 14:49:00,55.8,42.1,29.91,WNW,287,6.0,11.0,60,0.00,,FEW046,0.00,VWS V14.01,2013-11-09 20:49:00,
2013-11-09 14:54:00,56.0,42.8,29.91,WNW,298,13.0,13.0,61,0.00,,FEW046,0.00,VWS V14.01,2013-11-09 20:54:00,
2013-11-09 14:59:00,56.0,42.3,29.92,NNW,338,8.0,10.0,60,0.00,,FEW046,0.00,VWS V14.01,2013-11-09 20:59:00,
2013-11-09 15:04:00,56.1,42.4,29.92,WSW,249,3.0,10.0,60,0.00,,SCT044,0.00,VWS V14.01,2013-11-09 21:04:00,
2013-11-09 15:09:00,56.0,42.3,29.92,WNW,291,7.0,11.0,60,0.00,,SCT044,0.00,VWS V14.01,2013-11-09 21:09:00,
2013-11-09 15:14:00,55.8,42.1,29.92,West,274,7.0,17.0,60,0.00,,SCT044,0.00,VWS V14.01,2013-11-09 21:14:00,
2013-11-09 15:19:00,55.5,41.9,29.92,North,351,1.0,11.0,60,0.00,,SCT044,0.00,VWS V14.01,2013-11-09 21:19:00,
2013-11-09 15:24:00,55.1,41.0,29.92,West,260,8.0,15.0,59,0.00,,SCT050,0.00,VWS V14.01,2013-11-09 21:24:00,
2013-11-09 15:29:00,55.0,41.8,29.92,WNW,294,6.0,13.0,61,0.00,,SCT050,0.00,VWS V14.01,2013-11-09 21:29:00,
2013-11-09 15:34:00,54.7,41.5,29.93,West,275,5.0,15.0,61,0.00,,SCT050,0.00,VWS V14.01,2013-11-09 21:34:00,
2013-11-09 15:39:00,54.6,41.4,29.93,WSW,245,8.0,15.0,61,0.00,,SCT050,0.00,VWS V14.01,2013-11-09 21:39:00,
2013-11-09 15:44:00,54.4,41.2,29.93,WSW,253,10.0,14.0,61,0.00,,FEW042,0.00,VWS V14.01,2013-11-09 21:44:00,
2013-11-09 15:49:00,54.2,41.5,29.93,WNW,290,8.0,14.0,62,0.00,,FEW042,0.00,VWS V14.01,2013-11-09 21:49:00,
2013-11-09 15:54:00,54.0,41.3,29.93,WSW,258,6.0,14.0,62,0.00,,FEW042,0.00,VWS V14.01,2013-11-09 21:54:00,
2013-11-09 15:59:00,53.8,40.7,29.94,West,278,2.0,12.0,61,0.00,,FEW042,0.00,VWS V14.01,2013-11-09 21:59:00,
2013-11-09 16:04:00,53.5,40.8,29.94,West,280,4.0,11.0,62,0.00,,CLR,0.00,VWS V14.01,2013-11-09 22:04:00,
2013-11-09 16:09:00,53.1,40.8,29.94,WSW,250,15.0,18.0,63,0.00,,CLR,0.00,VWS V14.01,2013-11-09 22:09:00,
2013-11-09 16:14:00,53.1,40.8,29.94,West,273,4.0,14.0,63,0.00,,CLR,0.00,VWS V14.01,2013-11-09 22:14:00,
2013-11-09 16:19:00,52.8,41.0,29.95,WNW,284,8.0,9.0,64,0.00,,CLR,0.00,VWS V14.01,2013-11-09 22:19:00,
2013-11-09 16:24:00,52.4,41.0,29.95,West,269,4.0,8.0,65,0.00,,CLR,0.00,VWS V14.01,2013-11-09 22:24:00,
2013-11-09 16:29:00,52.1,40.7,29.95,WNW,290,1.0,12.0,65,0.00,,CLR,0.00,VWS V14.01,2013-11-09 22:29:00,
2013-11-09 16:34:00,51.8,40.8,29.95,WSW,248,3.0,10.0,66,0.00,,CLR,0.00,VWS V14.01,2013-11-09 22:34:00,
2013-11-09 16:39:00,51.6,40.6,29.95,WSW,244,2.0,9.0,66,0.00,,CLR,0.00,VWS V14.01,2013-11-09 22:39:00,
2013-11-09 16:44:00,51.4,40.8,29.95,West,260,4.0,9.0,67,0.00,,CLR,0.00,VWS V14.01,2013-11-09 22:44:00,
2013-11-09 16:48:00,51.3,40.7,29.95,West,278,5.0,10.0,67,0.00,,CLR,0.00,VWS V14.01,2013-11-09 22:48:00,
2013-11-09 16:53:00,51.1,40.5,29.95,SSW,209,6.0,13.0,67,0.00,,CLR,0.00,VWS V14.01,2013-11-09 22:53:00,
2013-11-09 16:58:00,51.0,40.4,29.96,SW,231,2.0,11.0,67,0.00,,CLR,0.00,VWS V14.01,2013-11-09 22:58:00,
2013-11-09 17:03:00,50.8,40.2,29.96,WSW,252,9.0,10.0,67,0.00,,CLR,0.00,VWS V14.01,2013-11-09 23:03:00,
2013-11-09 17:08:00,50.6,40.1,29.96,WNW,286,2.0,11.0,67,0.00,,CLR,0.00,VWS V14.01,2013-11-09 23:08:00,
2013-11-09 17:13:00,50.4,40.2,29.96,West,269,2.0,11.0,68,0.00,,CLR,0.00,VWS V14.01,2013-11-09 23:13:00,
2013-11-09 17:18:00,50.0,39.9,29.96,SW,236,5.0,11.0,68,0.00,,CLR,0.00,VWS V14.01,2013-11-09 23:18:00,
2013-11-09 17:23:00,49.9,40.2,29.96,WSW,246,6.0,9.0,69,0.00,,CLR,0.00,VWS V14.01,2013-11-09 23:23:00,
2013-11-09 17:28:00,49.8,40.0,29.97,WSW,239,4.0,8.0,69,0.00,,CLR,0.00,VWS V14.01,2013-11-09 23:28:00,
2013-11-09 17:33:00,49.6,39.9,29.97,West,261,1.0,12.0,69,0.00,,CLR,0.00,VWS V14.01,2013-11-09 23:33:00,
2013-11-09 17:38:00,49.2,39.8,29.98,WNW,288,2.0,7.0,70,0.00,,CLR,0.00,VWS V14.01,2013-11-09 23:38:00,
2013-11-09 17:43:00,48.9,39.9,29.98,West,274,1.0,7.0,71,0.00,,CLR,0.00,VWS V14.01,2013-11-09 23:43:00,
2013-11-09 17:48:00,48.7,39.7,29.98,WSW,250,2.0,6.0,71,0.00,,CLR,0.00,VWS V14.01,2013-11-09 23:48:00,
2013-11-09 17:53:00,48.5,39.9,29.98,WSW,248,2.0,9.0,72,0.00,,CLR,0.00,VWS V14.01,2013-11-09 23:53:00,
2013-11-09 17:58:00,48.4,39.8,29.98,WSW,255,0.0,5.0,72,0.00,,CLR,0.00,VWS V14.01,2013-11-09 23:58:00,
2013-11-09 18:03:00,48.2,39.6,29.99,West,265,2.0,7.0,72,0.00,,CLR,0.00,VWS V14.01,2013-11-10 00:03:00,
2013-11-09 18:08:00,48.0,39.4,29.99,WSW,252,4.0,8.0,72,0.00,,CLR,0.00,VWS V14.01,2013-11-10 00:08:00,
2013-11-09 18:13:00,47.9,39.7,29.99,WSW,246,0.0,5.0,73,0.00,,CLR,0.00,VWS V14.01,2013-11-10 00:13:00,
2013-11-09 18:18:00,47.6,39.4,30.00,West,268,3.0,10.0,73,0.00,,CLR,0.00,VWS V14.01,2013-11-10 00:18:00,
2013-11-09 18:23:00,47.5,39.6,30.00,West,260,0.0,6.0,74,0.00,,CLR,0.00,VWS V14.01,2013-11-10 00:23:00,
2013-11-09 18:28:00,47.3,39.5,30.00,West,272,3.0,6.0,74,0.00,,CLR,0.00,VWS V14.01,2013-11-10 00:28:00,
2013-11-09 18:33:00,47.2,39.3,30.00,West,274,0.0,7.0,74,0.00,,CLR,0.00,VWS V14.01,2013-11-10 00:33:00,
2013-11-09 18:38:00,47.1,39.2,30.00,West,267,6.0,9.0,74,0.00,,CLR,0.00,VWS V14.01,2013-11-10 00:38:00,
2013-11-09 18:43:00,47.2,39.3,30.00,West,259,4.0,5.0,74,0.00,,CLR,0.00,VWS V14.01,2013-11-10 00:43:00,
2013-11-09 18:48:00,47.0,39.2,30.00,WSW,255,1.0,6.0,74,0.00,,CLR,0.00,VWS V14.01,2013-11-10 00:48:00,
2013-11-09 18:53:00,46.9,39.1,30.00,WSW,247,0.0,8.0,74,0.00,,CLR,0.00,VWS V14.01,2013-11-10 00:53:00,
2013-11-09 18:58:00,46.7,38.9,30.00,West,279,4.0,5.0,74,0.00,,CLR,0.00,VWS V14.01,2013-11-10 00:58:00,
2013-11-09 19:03:00,46.6,38.8,30.01,West,271,5.0,6.0,74,0.00,,CLR,0.00,VWS V14.01,2013-11-10 01:03:00,
2013-11-09 19:08:00,46.5,38.7,30.01,NW,319,5.0,6.0,74,0.00,,CLR,0.00,VWS V14.01,2013-11-10 01:08:00,
2013-11-09 19:13:00,46.5,38.7,30.01,WSW,252,1.0,6.0,74,0.00,,CLR,0.00,VWS V14.01,2013-11-10 01:13:00,
2013-11-09 19:18:00,46.3,38.5,30.01,West,261,0.0,5.0,74,0.00,,CLR,0.00,VWS V14.01,2013-11-10 01:18:00,
2013-11-09 19:23:00,46.2,38.7,30.01,WSW,252,0.0,3.0,75,0.00,,CLR,0.00,VWS V14.01,2013-11-10 01:23:00,
2013-11-09 19:28:00,46.3,38.8,30.01,WSW,237,7.0,7.0,75,0.00,,CLR,0.00,VWS V14.01,2013-11-10 01:28:00,
2013-11-09 19:33:00,46.4,38.9,30.02,WSW,240,1.0,5.0,75,0.00,,CLR,0.00,VWS V14.01,2013-11-10 01:33:00,
2013-11-09 19:38:00,46.2,38.7,30.02,SW,236,0.0,5.0,75,0.00,,CLR,0.00,VWS V14.01,2013-11-10 01:38:00,
2013-11-09 19:43:00,45.8,38.3,30.02,WSW,257,2.0,3.0,75,0.00,,CLR,0.00,VWS V14.01,2013-11-10 01:43:00,
2013-11-09 19:48:00,45.3,38.2,30.02,WSW,248,0.0,4.0,76,0.00,,CLR,0.00,VWS V14.01,2013-11-10 01:48:00,
2013-11-09 19:53:00,45.0,38.2,30.02,WNW,286,0.0,4.0,77,0.00,,CLR,0.00,VWS V14.01,2013-11-10 01:53:00,
2013-11-09 19:58:00,44.6,38.2,30.02,WNW,286,0.0,1.0,78,0.00,,CLR,0.00,VWS V14.01,2013-11-10 01:58:00,
2013-11-09 20:03:00,44.2,38.1,30.02,West,275,2.0,4.0,79,0.00,,CLR,0.00,VWS V14.01,2013-11-10 02:03:00,
2013-11-09 20:08:00,44.2,38.1,30.03,West,270,1.0,4.0,79,0.00,,CLR,0.00,VWS V14.01,2013-11-10 02:08:00,
2013-11-09 20:13:00,44.4,38.3,30.03,WSW,252,3.0,6.0,79,0.00,,CLR,0.00,VWS V14.01,2013-11-10 02:13:00,
2013-11-09 20:18:00,44.5,38.1,30.03,WSW,254,1.0,5.0,78,0.00,,CLR,0.00,VWS V14.01,2013-11-10 02:18:00,
2013-11-09 20:23:00,44.3,38.2,30.03,West,275,1.0,5.0,79,0.00,,CLR,0.00,VWS V14.01,2013-11-10 02:23:00,
2013-11-09 20:28:00,44.5,38.4,30.03,West,273,2.0,6.0,79,0.00,,CLR,0.00,VWS V14.01,2013-11-10 02:28:00,
2013-11-09 20:33:00,44.7,38.3,30.03,West,278,1.0,8.0,78,0.00,,CLR,0.00,VWS V14.01,2013-11-10 02:33:00,
2013-11-09 20:38:00,44.9,38.5,30.04,West,269,0.0,8.0,78,0.00,,CLR,0.00,VWS V14.01,2013-11-10 02:38:00,
2013-11-09 20:43:00,44.9,38.5,30.04,WNW,286,3.0,10.0,78,0.00,,CLR,0.00,VWS V14.01,2013-11-10 02:43:00,
2013-11-09 20:48:00,44.9,38.5,30.04,WNW,294,3.0,9.0,78,0.00,,CLR,0.00,VWS V14.01,2013-11-10 02:48:00,
2013-11-09 20:53:00,44.7,38.3,30.04,West,280,6.0,10.0,78,0.00,,CLR,0.00,VWS V14.01,2013-11-10 02:53:00,
2013-11-09 20:58:00,44.7,38.3,30.05,NW,306,3.0,10.0,78,0.00,,CLR,0.00,VWS V14.01,2013-11-10 02:58:00,
2013-11-09 21:03:00,44.5,38.1,30.05,NW,306,2.0,7.0,78,0.00,,CLR,0.00,VWS V14.01,2013-11-10 03:03:00,
2013-11-09 21:08:00,44.2,37.8,30.05,West,268,5.0,10.0,78,0.00,,CLR,0.00,VWS V14.01,2013-11-10 03:08:00,
2013-11-09 21:13:00,44.0,37.6,30.06,WNW,296,6.0,7.0,78,0.00,,CLR,0.00,VWS V14.01,2013-11-10 03:13:00,
2013-11-09 21:18:00,44.1,37.7,30.06,NW,317,5.0,11.0,78,0.00,,CLR,0.00,VWS V14.01,2013-11-10 03:18:00,
2013-11-09 21:23:00,44.0,37.6,30.06,NW,324,8.0,8.0,78,0.00,,SCT049,0.00,VWS V14.01,2013-11-10 03:23:00,
2013-11-09 21:28:00,43.7,37.3,30.06,NW,304,2.0,7.0,78,0.00,,SCT049,0.00,VWS V14.01,2013-11-10 03:28:00,
2013-11-09 21:33:00,43.6,37.5,30.07,NW,313,3.0,9.0,79,0.00,,SCT049,0.00,VWS V14.01,2013-11-10 03:33:00,
2013-11-09 21:38:00,43.3,37.2,30.07,NW,309,5.0,8.0,79,0.00,,SCT049,0.00,VWS V14.01,2013-11-10 03:38:00,
2013-11-09 21:43:00,43.1,37.0,30.07,West,278,1.0,5.0,79,0.00,,SCT047,0.00,VWS V14.01,2013-11-10 03:43:00,
2013-11-09 21:48:00,43.0,36.9,30.08,NW,321,5.0,8.0,79,0.00,,SCT047,0.00,VWS V14.01,2013-11-10 03:48:00,
2013-11-09 21:53:00,43.0,36.9,30.08,WNW,296,2.0,7.0,79,0.00,,SCT047,0.00,VWS V14.01,2013-11-10 03:53:00,
2013-11-09 21:58:00,43.1,37.0,30.08,NW,304,0.0,7.0,79,0.00,,SCT047,0.00,VWS V14.01,2013-11-10 03:58:00,
2013-11-09 22:03:00,43.1,37.0,30.09,NW,307,9.0,10.0,79,0.00,,FEW045,0.00,VWS V14.01,2013-11-10 04:03:00,
2013-11-09 22:08:00,43.0,36.6,30.09,NW,325,5.0,13.0,78,0.00,,FEW045,0.00,VWS V14.01,2013-11-10 04:08:00,
2013-11-09 22:13:00,42.9,35.5,30.09,NW,317,9.0,10.0,75,0.00,,FEW045,0.00,VWS V14.01,2013-11-10 04:13:00,
2013-11-09 22:18:00,42.7,36.0,30.09,NW,315,3.0,11.0,77,0.00,,FEW045,0.00,VWS V14.01,2013-11-10 04:18:00,
2013-11-09 22:23:00,42.4,34.0,30.09,NW,306,7.0,7.0,72,0.00,,CLR,0.00,VWS V14.01,2013-11-10 04:23:00,
2013-11-09 22:28:00,42.1,33.4,30.09,NW,321,6.0,9.0,71,0.00,,CLR,0.00,VWS V14.01,2013-11-10 04:28:00,
2013-11-09 22:33:00,41.8,33.1,30.09,NW,317,1.0,9.0,71,0.00,,CLR,0.00,VWS V14.01,2013-11-10 04:33:00,
2013-11-09 22:38:00,41.3,32.6,30.10,WNW,294,2.0,3.0,71,0.00,,CLR,0.00,VWS V14.01,2013-11-10 04:38:00,
2013-11-09 22:43:00,40.6,32.6,30.10,WNW,284,2.0,4.0,73,0.00,,FEW041,0.00,VWS V14.01,2013-11-10 04:43:00,
2013-11-09 22:48:00,40.6,32.6,30.10,WNW,289,3.0,9.0,73,0.00,,FEW041,0.00,VWS V14.01,2013-11-10 04:48:00,
2013-11-09 22:53:00,40.8,32.8,30.10,WNW,300,4.0,12.0,73,0.00,,FEW041,0.00,VWS V14.01,2013-11-10 04:53:00,
2013-11-09 22:58:00,40.9,32.6,30.10,NW,320,2.0,8.0,72,0.00,,FEW041,0.00,VWS V14.01,2013-11-10 04:58:00,
2013-11-09 23:01:00,40.9,32.6,30.10,NW,306,1.0,6.0,72,0.00,,CLR,0.00,VWS V14.01,2013-11-10 05:01:00,
2013-11-09 23:06:00,40.7,32.7,30.10,West,271,1.0,5.0,73,0.00,,CLR,0.00,VWS V14.01,2013-11-10 05:06:00,
2013-11-09 23:11:00,40.6,32.6,30.10,West,261,3.0,5.0,73,0.00,,CLR,0.00,VWS V14.01,2013-11-10 05:11:00,
2013-11-09 23:16:00,40.5,32.5,30.10,WSW,257,3.0,5.0,73,0.00,,CLR,0.00,VWS V14.01,2013-11-10 05:16:00,
2013-11-09 23:21:00,40.2,32.6,30.10,WSW,258,1.0,6.0,74,0.00,,CLR,0.00,VWS V14.01,2013-11-10 05:21:00,
2013-11-09 23:26:00,40.0,32.4,30.10,West,267,3.0,6.0,74,0.00,,CLR,0.00,VWS V14.01,2013-11-10 05:26:00,
2013-11-09 23:31:00,39.9,32.6,30.10,WNW,284,1.0,5.0,75,0.00,,CLR,0.00,VWS V14.01,2013-11-10 05:31:00,
2013-11-09 23:36:00,39.8,32.5,30.10,WNW,287,0.0,5.0,75,0.00,,CLR,0.00,VWS V14.01,2013-11-10 05:36:00,
2013-11-09 23:41:00,39.6,32.3,30.11,West,275,2.0,6.0,75,0.00,,CLR,0.00,VWS V14.01,2013-11-10 05:41:00,
2013-11-09 23:46:00,39.7,32.4,30.11,WNW,292,3.0,6.0,75,0.00,,CLR,0.00,VWS V14.01,2013-11-10 05:46:00,
2013-11-09 23:51:00,39.7,32.1,30.11,WNW,295,7.0,7.0,74,0.00,,CLR,0.00,VWS V14.01,2013-11-10 05:51:00,
2013-11-09 23:56:00,39.7,32.1,30.11,West,279,4.0,8.0,74,0.00,,CLR,0.00,VWS V14.01,2013-11-10 05:56:00,